Denver, Colorado
Traffic Map
Current Weather Conditions
Denver, Colorado
Clear
Clear
27°
Feels Like: 27°
Wind Chill: 27° Ceiling: Unl
Heat Index: 27° Visibility: 10mi
Dew Point: 19° Wind: 3mph
Humidity: 74% Direction: 180° (S)
Pressure: 30.13in Gusts: 0mph
Raw Report DataKBJC 150755Z AUTO 18003KT 10SM CLR M03/M07 A3013 RMK AO2
Traffic Incident Summary
Active as of:
Severity:
Category:
InformationThere was an issue retrieving the traffic information for this location. Please try a different location or try again shortly.
Advertisements